createdAt,value
2023-03-04T00:01:31.309Z,99.07
2023-03-04T00:03:58.373Z,99.27
2023-03-04T00:06:25.171Z,99.57
2023-03-04T00:08:52.222Z,108.80
2023-03-04T00:11:19.314Z,96.70
2023-03-04T00:13:46.503Z,96.27
2023-03-04T00:16:13.336Z,97.43
2023-03-04T00:18:40.484Z,99.13
2023-03-04T00:21:07.179Z,94.10
2023-03-04T00:23:34.164Z,92.13
2023-03-04T00:26:01.250Z,96.97
2023-03-04T00:28:28.070Z,95.53
2023-03-04T00:30:55.230Z,86.50
2023-03-04T00:33:21.891Z,88.33
2023-03-04T00:35:49.198Z,95.03
2023-03-04T00:38:15.917Z,91.93
2023-03-04T00:40:42.627Z,95.07
2023-03-04T00:43:09.744Z,81.33
2023-03-04T00:45:36.860Z,81.03
2023-03-04T00:48:04.083Z,88.23
2023-03-04T00:50:31.157Z,85.73
2023-03-04T00:52:58.284Z,87.33
2023-03-04T00:55:25.361Z,77.07
2023-03-04T00:57:52.429Z,83.83
2023-03-04T01:00:19.565Z,83.30
2023-03-04T01:02:46.762Z,80.23
2023-03-04T01:05:13.477Z,80.47
2023-03-04T01:07:40.849Z,78.30
2023-03-04T01:10:09.324Z,81.60
2023-03-04T01:12:36.046Z,84.13
2023-03-04T01:15:03.212Z,75.00
2023-03-04T01:17:30.005Z,82.13
2023-03-04T01:19:57.158Z,77.93
2023-03-04T01:22:23.796Z,85.57
2023-03-04T01:24:50.495Z,81.63
2023-03-04T01:27:17.702Z,79.97
2023-03-04T01:29:44.762Z,84.53
2023-03-04T01:32:11.866Z,74.27
2023-03-04T01:34:38.587Z,84.47
2023-03-04T01:37:05.370Z,81.10
2023-03-04T01:39:32.061Z,87.93
2023-03-04T01:41:59.088Z,85.00
2023-03-04T01:44:26.207Z,87.03
2023-03-04T01:46:55.382Z,89.00
2023-03-04T01:49:22.761Z,81.13
2023-03-04T01:51:52.580Z,86.23
2023-03-04T01:54:20.117Z,81.43
2023-03-04T01:56:48.976Z,91.20
2023-03-04T01:59:26.864Z,92.40
2023-03-04T02:01:56.905Z,99.90
2023-03-04T02:04:26.686Z,91.23
2023-03-04T02:06:53.908Z,83.97
2023-03-04T02:09:22.281Z,85.63
2023-03-04T02:11:51.060Z,87.20
2023-03-04T02:14:18.858Z,89.57
2023-03-04T02:16:46.212Z,94.60
2023-03-04T02:19:30.044Z,83.13
2023-03-04T02:21:57.150Z,80.80
2023-03-04T02:24:48.394Z,78.57
2023-03-04T02:27:15.557Z,95.90
2023-03-04T02:29:42.205Z,87.10
2023-03-04T02:32:12.260Z,87.20
2023-03-04T02:34:46.299Z,84.10
2023-03-04T02:37:13.787Z,81.90
2023-03-04T02:39:42.945Z,86.37
2023-03-04T02:42:09.836Z,94.43
2023-03-04T02:44:39.056Z,86.80
2023-03-04T02:47:08.430Z,85.10
2023-03-04T02:49:37.023Z,80.93
2023-03-04T02:52:12.731Z,83.47
2023-03-04T02:54:39.608Z,82.97
2023-03-04T02:57:09.509Z,81.57
2023-03-04T02:59:37.807Z,83.97
2023-03-04T03:02:05.291Z,80.83
2023-03-04T03:04:32.453Z,87.10
2023-03-04T03:06:59.554Z,82.00
2023-03-04T03:09:26.218Z,91.40
2023-03-04T03:11:52.917Z,89.10
2023-03-04T03:14:20.060Z,89.00
2023-03-04T03:16:46.756Z,88.23
2023-03-04T03:19:13.562Z,83.77
2023-03-04T03:21:40.258Z,89.77
2023-03-04T03:24:06.946Z,83.37
2023-03-04T03:26:34.066Z,96.03
2023-03-04T03:29:00.728Z,81.50
2023-03-04T03:31:27.492Z,84.87
2023-03-04T03:33:54.586Z,87.57
2023-03-04T03:36:21.657Z,84.30
2023-03-04T03:38:48.788Z,86.30
2023-03-04T03:41:15.876Z,81.20
2023-03-04T03:43:42.939Z,85.50
2023-03-04T03:46:09.747Z,82.60
2023-03-04T03:48:36.524Z,82.37
2023-03-04T03:51:03.632Z,91.43
2023-03-04T03:53:30.372Z,81.90
2023-03-04T03:55:58.994Z,85.20
2023-03-04T03:58:26.989Z,80.27
2023-03-04T04:00:55.401Z,72.83
2023-03-04T04:03:23.145Z,79.77
2023-03-04T04:05:50.216Z,87.73
2023-03-04T04:08:17.898Z,85.07
2023-03-04T04:10:44.945Z,81.27
2023-03-04T04:13:12.073Z,90.70
2023-03-04T04:15:39.139Z,74.70
2023-03-04T04:18:06.763Z,81.60
2023-03-04T04:20:34.235Z,72.10
2023-03-04T04:23:01.496Z,78.80
2023-03-04T04:25:28.613Z,90.57
2023-03-04T04:27:55.307Z,80.23
2023-03-04T04:30:22.423Z,81.90
2023-03-04T04:32:49.503Z,77.83
2023-03-04T04:35:16.201Z,81.07
2023-03-04T04:37:43.256Z,74.17
2023-03-04T04:40:10.717Z,85.60
2023-03-04T04:42:37.805Z,74.50
2023-03-04T04:45:04.923Z,85.43
2023-03-04T04:47:32.006Z,78.60
2023-03-04T04:49:59.112Z,75.30
2023-03-04T04:52:26.213Z,86.67
2023-03-04T04:54:52.983Z,81.47
2023-03-04T04:57:20.186Z,83.80
2023-03-04T04:59:46.866Z,77.10
2023-03-04T05:02:13.578Z,80.83
2023-03-04T05:04:40.686Z,67.23
2023-03-04T05:07:07.384Z,78.17
2023-03-04T05:09:34.032Z,78.40
2023-03-04T05:12:01.124Z,73.83
2023-03-04T05:14:28.236Z,80.03
2023-03-04T05:16:55.390Z,74.73
2023-03-04T05:19:22.157Z,71.80
2023-03-04T05:21:49.286Z,67.27
2023-03-04T05:24:16.015Z,77.30
2023-03-04T05:26:42.904Z,76.33
2023-03-04T05:29:09.625Z,72.40
2023-03-04T05:31:36.605Z,69.40
2023-03-04T05:34:03.742Z,78.73
2023-03-04T05:36:30.460Z,66.00
2023-03-04T05:38:57.294Z,70.80
2023-03-04T05:41:24.052Z,69.17
2023-03-04T05:43:51.396Z,70.23
2023-03-04T05:46:25.248Z,67.73
2023-03-04T05:48:53.541Z,66.50
2023-03-04T05:51:20.914Z,66.63
2023-03-04T05:53:48.343Z,71.27
2023-03-04T05:56:17.221Z,65.77
2023-03-04T05:58:44.589Z,76.30
2023-03-04T06:01:11.681Z,66.87
2023-03-04T06:03:38.926Z,74.20
2023-03-04T06:06:06.035Z,58.97
2023-03-04T06:08:33.185Z,56.80
2023-03-04T06:11:00.000Z,65.93
2023-03-04T06:13:27.030Z,70.47
2023-03-04T06:15:58.647Z,67.33
2023-03-04T06:18:26.745Z,67.30
2023-03-04T06:21:01.092Z,62.70
2023-03-04T06:23:28.275Z,58.90
2023-03-04T06:25:56.888Z,47.20
2023-03-04T06:28:23.973Z,40.90
2023-03-04T06:30:54.868Z,35.07
2023-03-04T06:33:21.819Z,35.93
2023-03-04T06:35:48.716Z,30.30
2023-03-04T06:38:15.891Z,30.33
2023-03-04T06:40:42.607Z,27.80
2023-03-04T06:43:09.744Z,25.57
2023-03-04T06:45:38.864Z,24.60
2023-03-04T06:48:05.901Z,22.33
2023-03-04T06:50:33.012Z,21.60
2023-03-04T06:52:59.669Z,25.07
2023-03-04T06:55:26.403Z,23.30
2023-03-04T06:57:53.455Z,20.90
2023-03-04T07:00:20.651Z,25.17
2023-03-04T07:02:47.530Z,25.60
2023-03-04T07:05:14.626Z,23.53
2023-03-04T07:07:41.716Z,24.87
2023-03-04T07:10:10.104Z,21.73
2023-03-04T07:12:37.355Z,23.87
2023-03-04T07:15:04.465Z,28.67
2023-03-04T07:17:31.540Z,27.53
2023-03-04T07:19:58.202Z,23.53
2023-03-04T07:22:25.315Z,20.50
2023-03-04T07:24:52.435Z,20.83
2023-03-04T07:27:19.129Z,19.20
2023-03-04T07:29:45.842Z,20.27
2023-03-04T07:32:12.681Z,17.73
2023-03-04T07:34:39.436Z,21.97
2023-03-04T07:37:06.127Z,17.90
2023-03-04T07:39:33.217Z,20.50
2023-03-04T07:41:59.893Z,25.13
2023-03-04T07:44:27.016Z,29.70
2023-03-04T07:46:53.664Z,25.90
2023-03-04T07:49:20.406Z,29.03
2023-03-04T07:51:47.474Z,25.80
2023-03-04T07:54:14.173Z,23.30
2023-03-04T07:56:40.838Z,21.43
2023-03-04T07:59:07.952Z,29.63
2023-03-04T08:01:37.005Z,24.53
2023-03-04T08:04:05.494Z,22.43
2023-03-04T08:06:32.521Z,21.03
2023-03-04T08:09:05.903Z,22.10
2023-03-04T08:11:34.260Z,24.13
2023-03-04T08:14:00.949Z,21.00
2023-03-04T08:16:27.913Z,22.30
2023-03-04T08:18:59.563Z,24.23
2023-03-04T08:21:28.015Z,18.43
2023-03-04T08:23:57.047Z,14.97
2023-03-04T08:26:30.307Z,14.37
2023-03-04T08:28:57.878Z,15.27
2023-03-04T08:31:25.369Z,11.70
2023-03-04T08:33:52.955Z,11.93
2023-03-04T08:36:20.144Z,10.60
2023-03-04T08:38:47.376Z,9.23
2023-03-04T08:41:15.386Z,12.03
2023-03-04T08:43:42.260Z,13.40
2023-03-04T08:46:09.408Z,10.57
2023-03-04T08:48:37.700Z,8.47
2023-03-04T08:51:09.570Z,14.30
2023-03-04T08:53:37.514Z,12.87
2023-03-04T08:56:05.248Z,9.23
2023-03-04T08:58:32.406Z,9.63
2023-03-04T09:01:01.008Z,10.13
2023-03-04T09:03:28.588Z,10.27
2023-03-04T09:05:56.211Z,10.83
2023-03-04T09:08:23.137Z,9.63
2023-03-04T09:10:53.698Z,11.10
2023-03-04T09:13:21.619Z,12.70
2023-03-04T09:15:50.910Z,12.10
2023-03-04T09:18:19.263Z,9.53
2023-03-04T09:20:46.370Z,10.60
2023-03-04T09:23:13.913Z,8.83
2023-03-04T09:25:41.901Z,9.20
2023-03-04T09:28:08.988Z,12.53
2023-03-04T09:30:36.060Z,13.67
2023-03-04T09:33:03.191Z,10.80
2023-03-04T09:35:30.171Z,8.53
2023-03-04T09:37:58.264Z,9.50
2023-03-04T09:40:29.809Z,13.77
2023-03-04T09:43:00.870Z,8.10
2023-03-04T09:46:00.255Z,10.53
2023-03-04T09:48:29.867Z,10.67
2023-03-04T09:51:03.468Z,10.73
2023-03-04T09:53:40.742Z,10.03
2023-03-04T09:56:07.908Z,11.37
2023-03-04T09:58:44.471Z,7.73
2023-03-04T10:01:35.373Z,8.87
2023-03-04T10:04:02.412Z,10.57
2023-03-04T10:06:31.317Z,8.20
2023-03-04T10:09:11.438Z,8.53
2023-03-04T10:11:46.796Z,7.57
2023-03-04T10:14:27.402Z,9.20
2023-03-04T10:17:17.175Z,9.20
2023-03-04T10:19:44.273Z,6.00
2023-03-04T10:22:26.728Z,8.60
2023-03-04T10:24:56.333Z,8.03
2023-03-04T10:27:24.750Z,10.43
2023-03-04T10:29:52.325Z,11.20
2023-03-04T10:32:21.022Z,7.00
2023-03-04T10:34:48.241Z,7.33
2023-03-04T10:37:15.385Z,6.57
2023-03-04T10:39:46.691Z,7.77
2023-03-04T10:42:16.285Z,10.37
2023-03-04T10:44:51.853Z,9.30
2023-03-04T10:47:18.962Z,9.37
2023-03-04T10:49:57.116Z,8.57
2023-03-04T10:52:24.181Z,8.43
2023-03-04T10:54:54.547Z,5.50
2023-03-04T10:57:28.790Z,6.07
2023-03-04T10:59:57.672Z,8.77
2023-03-04T11:02:31.788Z,7.20
2023-03-04T11:05:06.549Z,7.10
2023-03-04T11:07:53.861Z,5.77
2023-03-04T11:10:22.478Z,6.97
2023-03-04T11:13:00.520Z,8.03
2023-03-04T11:15:31.072Z,7.60
2023-03-04T11:18:02.549Z,5.50
2023-03-04T11:20:41.912Z,5.53
2023-03-04T11:23:18.492Z,5.90
2023-03-04T11:26:03.250Z,7.07
2023-03-04T11:28:56.419Z,7.43
2023-03-04T11:31:36.483Z,6.07
2023-03-04T11:34:18.519Z,7.13
2023-03-04T11:37:13.798Z,4.20
2023-03-04T11:39:59.039Z,7.70
2023-03-04T11:42:33.454Z,7.73
2023-03-04T11:45:00.628Z,9.97
2023-03-04T11:48:00.893Z,9.63
2023-03-04T11:50:58.007Z,6.67
2023-03-04T11:54:01.651Z,5.47
2023-03-04T11:56:43.503Z,8.73
2023-03-04T11:59:31.269Z,5.17
2023-03-04T12:02:19.436Z,4.13
2023-03-04T12:04:49.353Z,7.37
2023-03-04T12:07:53.753Z,4.13
2023-03-04T12:10:49.326Z,5.90
2023-03-04T12:13:19.372Z,9.00
2023-03-04T12:16:10.489Z,6.00
2023-03-04T12:18:55.854Z,5.83
2023-03-04T12:21:25.543Z,6.20
2023-03-04T12:23:52.709Z,6.20
2023-03-04T12:26:25.589Z,7.07
2023-03-04T12:29:13.396Z,5.73
2023-03-04T12:31:55.124Z,4.70
2023-03-04T12:34:30.575Z,8.43
2023-03-04T12:37:28.223Z,8.90
2023-03-04T12:39:55.289Z,5.93
2023-03-04T12:42:45.429Z,5.60
2023-03-04T12:46:05.012Z,7.13
2023-03-04T12:48:37.261Z,6.40
2023-03-04T12:51:04.313Z,5.27
2023-03-04T12:53:54.397Z,8.73
2023-03-04T12:56:30.632Z,9.53
2023-03-04T12:58:57.666Z,7.03
2023-03-04T13:01:39.242Z,7.27
2023-03-04T13:04:14.459Z,4.10
2023-03-04T13:07:03.561Z,5.47
2023-03-04T13:09:35.063Z,6.40
2023-03-04T13:12:22.558Z,10.07
2023-03-04T13:15:07.768Z,6.07
2023-03-04T13:17:51.737Z,5.33
2023-03-04T13:20:24.267Z,6.57
2023-03-04T13:22:51.342Z,6.70
2023-03-04T13:25:38.833Z,5.33
2023-03-04T13:28:19.137Z,7.53
2023-03-04T13:30:45.849Z,4.37
2023-03-04T13:33:15.728Z,4.23
2023-03-04T13:35:54.371Z,5.60
2023-03-04T13:38:30.764Z,3.40
2023-03-04T13:41:15.607Z,4.63
2023-03-04T13:43:42.900Z,4.50
2023-03-04T13:46:18.870Z,5.47
2023-03-04T13:48:51.911Z,7.10
2023-03-04T13:51:44.183Z,4.23
2023-03-04T13:54:19.697Z,4.57
2023-03-04T13:57:06.039Z,2.17
2023-03-04T13:59:33.167Z,7.60
2023-03-04T14:02:03.021Z,2.90
2023-03-04T14:04:29.773Z,6.53
2023-03-04T14:06:58.888Z,3.63
2023-03-04T14:09:27.266Z,5.03
2023-03-04T14:11:57.117Z,2.43
2023-03-04T14:14:54.716Z,2.07
2023-03-04T14:17:26.857Z,5.20
2023-03-04T14:19:54.096Z,5.27
2023-03-04T14:22:30.826Z,5.27
2023-03-04T14:24:59.864Z,6.30
2023-03-04T14:27:26.991Z,3.07
2023-03-04T14:30:01.369Z,2.73
2023-03-04T14:32:29.783Z,3.43
2023-03-04T14:35:19.588Z,3.43
2023-03-04T14:38:02.373Z,3.47
2023-03-04T14:40:35.518Z,4.93
2023-03-04T14:43:28.307Z,6.10
2023-03-04T14:45:58.518Z,7.50
2023-03-04T14:48:25.645Z,4.97
2023-03-04T14:50:53.760Z,5.23
2023-03-04T14:53:23.523Z,4.67
2023-03-04T14:55:56.827Z,4.10
2023-03-04T14:58:32.117Z,5.77
2023-03-04T15:01:20.888Z,6.70
2023-03-04T15:03:58.374Z,4.17
2023-03-04T15:06:27.717Z,6.50
2023-03-04T15:09:00.752Z,5.07
2023-03-04T15:11:32.071Z,5.23
2023-03-04T15:14:00.176Z,5.17
2023-03-04T15:16:30.438Z,6.40
2023-03-04T15:19:06.254Z,6.20
2023-03-04T15:21:44.357Z,3.63
2023-03-04T15:24:11.692Z,4.17
2023-03-04T15:26:41.026Z,3.47
2023-03-04T15:29:17.829Z,4.83
2023-03-04T15:31:45.089Z,4.93
2023-03-04T15:34:20.243Z,5.17
2023-03-04T15:36:50.136Z,5.67
2023-03-04T15:39:18.078Z,3.77
2023-03-04T15:41:46.837Z,3.23
2023-03-04T15:44:13.709Z,3.43
2023-03-04T15:46:40.926Z,4.70
2023-03-04T15:49:08.112Z,4.87
2023-03-04T15:51:35.204Z,3.20
2023-03-04T15:54:02.350Z,4.10
2023-03-04T15:56:31.713Z,6.80
2023-03-04T15:59:03.978Z,8.77
2023-03-04T16:01:31.210Z,5.23
2023-03-04T16:03:58.294Z,4.67
2023-03-04T16:06:28.741Z,5.67
2023-03-04T16:08:55.481Z,7.07
2023-03-04T16:11:25.500Z,5.00
2023-03-04T16:13:52.475Z,5.20
2023-03-04T16:16:21.387Z,6.70
2023-03-04T16:18:48.228Z,6.03
2023-03-04T16:21:20.566Z,5.37
2023-03-04T16:23:49.872Z,5.43
2023-03-04T16:26:21.772Z,5.17
2023-03-04T16:28:48.869Z,4.53
2023-03-04T16:31:16.410Z,6.03
2023-03-04T16:33:43.582Z,6.20
2023-03-04T16:36:17.328Z,3.83
2023-03-04T16:38:44.523Z,5.93
2023-03-04T16:41:16.203Z,5.20
2023-03-04T16:43:43.781Z,4.77
2023-03-04T16:46:14.014Z,7.40
2023-03-04T16:48:41.544Z,5.20
2023-03-04T16:51:20.732Z,7.07
2023-03-04T16:53:49.960Z,9.57
2023-03-04T16:56:18.556Z,8.77
2023-03-04T16:58:46.053Z,9.63
2023-03-04T17:01:24.595Z,8.47
2023-03-04T17:03:51.770Z,6.90
2023-03-04T17:06:19.333Z,8.60
2023-03-04T17:08:46.448Z,6.53
2023-03-04T17:11:17.162Z,9.00
2023-03-04T17:13:44.443Z,15.43
2023-03-04T17:16:12.425Z,22.40
2023-03-04T17:18:39.420Z,10.63
2023-03-04T17:21:08.420Z,21.37
2023-03-04T17:23:35.556Z,13.83
2023-03-04T17:26:02.658Z,13.27
2023-03-04T17:28:30.744Z,12.37
2023-03-04T17:30:57.701Z,12.47
2023-03-04T17:33:24.772Z,18.63
2023-03-04T17:35:52.009Z,10.23
2023-03-04T17:38:19.014Z,16.10
2023-03-04T17:40:46.088Z,15.87
2023-03-04T17:43:13.584Z,13.20
2023-03-04T17:45:43.918Z,28.53
2023-03-04T17:48:15.044Z,16.77
2023-03-04T17:50:52.234Z,16.27
2023-03-04T17:53:20.130Z,14.87
2023-03-04T17:55:59.955Z,16.73
2023-03-04T17:58:27.683Z,12.70
2023-03-04T18:00:59.920Z,16.47
2023-03-04T18:03:27.125Z,16.77
2023-03-04T18:05:53.853Z,19.80
2023-03-04T18:08:23.465Z,17.67
2023-03-04T18:10:51.193Z,22.33
2023-03-04T18:13:17.959Z,18.30
2023-03-04T18:15:44.674Z,20.43
2023-03-04T18:18:11.829Z,22.23
2023-03-04T18:20:38.537Z,22.43
2023-03-04T18:23:05.313Z,22.33
2023-03-04T18:25:32.428Z,20.17
2023-03-04T18:27:59.748Z,20.43
2023-03-04T18:30:27.533Z,19.43
2023-03-04T18:32:55.968Z,16.97
2023-03-04T18:35:23.283Z,18.73
2023-03-04T18:37:50.835Z,15.77
2023-03-04T18:40:18.250Z,12.63
2023-03-04T18:42:45.481Z,16.40
2023-03-04T18:45:13.162Z,11.70
2023-03-04T18:47:46.592Z,16.17
2023-03-04T18:50:14.378Z,11.00
2023-03-04T18:52:41.575Z,11.47
2023-03-04T18:55:09.176Z,10.37
2023-03-04T18:57:39.036Z,13.60
2023-03-04T19:00:06.815Z,10.37
2023-03-04T19:02:47.474Z,11.80
2023-03-04T19:05:27.287Z,11.17
2023-03-04T19:07:54.791Z,14.40
2023-03-04T19:10:23.717Z,9.60
2023-03-04T19:12:50.831Z,13.73
2023-03-04T19:15:18.327Z,14.47
2023-03-04T19:17:47.954Z,10.03
2023-03-04T19:20:16.002Z,10.93
2023-03-04T19:22:43.269Z,7.47
2023-03-04T19:25:10.549Z,9.30
2023-03-04T19:27:37.672Z,17.07
2023-03-04T19:30:06.312Z,20.87
2023-03-04T19:32:33.618Z,9.60
2023-03-04T19:35:00.787Z,12.17
2023-03-04T19:37:28.009Z,10.30
2023-03-04T19:39:56.056Z,8.70
2023-03-04T19:42:23.882Z,10.10
2023-03-04T19:44:50.671Z,8.13
2023-03-04T19:47:17.823Z,10.70
2023-03-04T19:49:44.611Z,9.00
2023-03-04T19:52:11.734Z,8.50
2023-03-04T19:54:38.900Z,10.20
2023-03-04T19:57:05.993Z,8.87
2023-03-04T19:59:32.640Z,12.50
2023-03-04T20:02:01.230Z,11.33
2023-03-04T20:04:28.450Z,10.27
2023-03-04T20:06:55.161Z,8.87
2023-03-04T20:09:22.796Z,10.43
2023-03-04T20:11:59.060Z,9.43
2023-03-04T20:14:31.853Z,9.30
2023-03-04T20:17:01.493Z,9.20
2023-03-04T20:19:29.229Z,12.77
2023-03-04T20:21:56.414Z,11.33
2023-03-04T20:24:24.100Z,13.60
2023-03-04T20:26:51.267Z,14.60
2023-03-04T20:29:18.715Z,18.00
2023-03-04T20:31:46.492Z,16.17
2023-03-04T20:34:15.454Z,12.33
2023-03-04T20:36:42.198Z,10.83
2023-03-04T20:39:25.769Z,13.00
2023-03-04T20:41:55.076Z,9.17
2023-03-04T20:44:22.190Z,11.00
2023-03-04T20:46:48.906Z,7.23
2023-03-04T20:49:27.378Z,10.93
2023-03-04T20:52:03.022Z,9.17
2023-03-04T20:54:30.706Z,10.17
2023-03-04T20:56:57.836Z,15.47
2023-03-04T20:59:25.013Z,13.30
2023-03-04T21:01:52.369Z,9.60
2023-03-04T21:04:20.515Z,14.93
2023-03-04T21:06:48.186Z,11.83
2023-03-04T21:09:17.030Z,10.30
2023-03-04T21:11:44.155Z,13.10
2023-03-04T21:14:22.021Z,11.77
2023-03-04T21:16:51.109Z,14.37
2023-03-04T21:19:27.520Z,19.77
2023-03-04T21:21:58.472Z,19.47
2023-03-04T21:24:28.424Z,18.30
2023-03-04T21:26:55.512Z,15.70
2023-03-04T21:29:24.438Z,15.63
2023-03-04T21:31:55.762Z,13.73
2023-03-04T21:34:38.339Z,12.27
2023-03-04T21:37:05.604Z,13.10
2023-03-04T21:39:32.918Z,16.70
2023-03-04T21:42:00.338Z,14.03
2023-03-04T21:44:33.758Z,13.97
2023-03-04T21:47:12.497Z,12.50
2023-03-04T21:49:40.168Z,11.80
2023-03-04T21:52:07.407Z,13.63
2023-03-04T21:54:34.492Z,12.90
2023-03-04T21:57:01.157Z,12.33
2023-03-04T21:59:28.290Z,16.60
2023-03-04T22:01:55.298Z,11.63
2023-03-04T22:04:22.439Z,6.70
2023-03-04T22:06:49.170Z,8.93
2023-03-04T22:09:15.996Z,10.80
2023-03-04T22:11:43.136Z,9.13
2023-03-04T22:14:11.114Z,8.47
2023-03-04T22:16:48.882Z,11.03
2023-03-04T22:19:19.670Z,10.67
2023-03-04T22:21:46.343Z,13.43
2023-03-04T22:24:13.116Z,8.30
2023-03-04T22:26:39.809Z,9.23
2023-03-04T22:29:06.606Z,9.47
2023-03-04T22:31:35.946Z,12.90
2023-03-04T22:34:11.703Z,12.03
2023-03-04T22:36:41.425Z,12.50
2023-03-04T22:39:10.283Z,13.53
2023-03-04T22:41:37.520Z,12.67
2023-03-04T22:44:06.213Z,12.57
2023-03-04T22:46:34.769Z,14.97
2023-03-04T22:49:04.997Z,9.33
2023-03-04T22:51:32.432Z,12.27
2023-03-04T22:53:59.147Z,9.97
2023-03-04T22:56:25.858Z,11.03
2023-03-04T22:58:53.032Z,9.90
2023-03-04T23:01:19.943Z,12.33
2023-03-04T23:03:48.732Z,13.83
2023-03-04T23:06:15.833Z,12.00
2023-03-04T23:08:44.193Z,17.37
2023-03-04T23:11:17.503Z,14.17
2023-03-04T23:13:44.280Z,11.47
2023-03-04T23:16:12.507Z,11.90
2023-03-04T23:18:41.264Z,12.43
2023-03-04T23:21:17.972Z,10.73
2023-03-04T23:23:45.552Z,10.10
2023-03-04T23:26:20.623Z,10.60
2023-03-04T23:28:47.357Z,10.20
2023-03-04T23:31:16.853Z,14.60
2023-03-04T23:33:44.520Z,12.17
2023-03-04T23:36:15.307Z,12.77
2023-03-04T23:38:42.976Z,14.33
2023-03-04T23:41:14.146Z,12.23
2023-03-04T23:43:41.320Z,16.20
2023-03-04T23:46:14.228Z,14.90
2023-03-04T23:48:43.633Z,17.47
2023-03-04T23:51:10.821Z,11.47
2023-03-04T23:53:39.096Z,15.83
2023-03-04T23:56:14.968Z,14.50
2023-03-04T23:58:45.083Z,14.30
